Time;durP1;ratioP1;P1;durP2;ratioP2;P2;SDS_P1;SDS_P2;PMS_P1;PMS_P2;Temp;Humidity;BMP_temperature;BMP_pressure;BME280_temperature;BME280_humidity;BME280_pressure;Samples;Min_cycle;Max_cycle;Signal;HPM_P1;HPM_P2
2022/09/25 00:01:14;;;;;;;;;;;;;;;10.23;100.00;101603.38;5051222;28;19936;-73
2022/09/25 00:03:39;;;;;;;;;;;;;;;10.19;100.00;101602.63;5048310;28;19924;-73
2022/09/25 00:06:09;;;;;;;;;;;;;;;10.17;100.00;101602.66;5049112;28;19956;-73
2022/09/25 00:08:35;;;;;;;;;;;;;;;10.14;100.00;101602.72;5064327;28;19964;-72
2022/09/25 00:11:04;;;;;;;;;;;;;;;10.13;100.00;101603.66;5049499;28;20070;-74
2022/09/25 00:13:30;;;;;;;;;;;;;;;10.12;100.00;101598.41;5048726;28;20292;-73
2022/09/25 00:15:56;;;;;;;;;;;;;;;10.09;100.00;101609.97;5050029;28;20022;-73
2022/09/25 00:21:06;;;;;;;;;;;;;;;10.02;100.00;101613.72;5049346;28;19924;-73
2022/09/25 00:23:33;;;;;;;;;;;;;;;10.01;100.00;101610.19;5050380;28;19939;-73
2022/09/25 00:25:58;;;;;;;;;;;;;;;9.99;100.00;101611.16;5050833;28;19929;-73
2022/09/25 00:28:26;;;;;;;;;;;;;;;9.97;100.00;101607.69;5050993;28;19931;-73
2022/09/25 00:30:51;;;;;;;;;;;;;;;9.96;100.00;101605.97;5048442;28;19968;-73
2022/09/25 00:33:16;;;;;;;;;;;;;;;9.97;100.00;101607.69;5049526;28;19976;-73
2022/09/25 00:35:42;;;;;;;;;;;;;;;9.96;100.00;101605.97;5048542;28;19928;-73
2022/09/25 00:38:07;;;;;;;;;;;;;;;9.94;100.00;101600.72;5050119;28;19939;-73
2022/09/25 00:40:33;;;;;;;;;;;;;;;9.91;100.00;101609.59;5050115;28;20059;-72
2022/09/25 00:42:58;;;;;;;;;;;;;;;9.87;100.00;101605.31;5049615;28;20576;-72
2022/09/25 00:45:23;;;;;;;;;;;;;;;9.85;100.00;101603.63;5049277;28;19979;-73
2022/09/25 00:47:53;;;;;;;;;;;;;;;9.83;100.00;101608.09;5049442;28;20444;-72
2022/09/25 00:50:30;;;;;;;;;;;;;;;9.78;100.00;101606.47;5049506;28;20031;-73
2022/09/25 00:52:57;;;;;;;;;;;;;;;9.74;100.00;101601.31;5048033;28;20045;-73
2022/09/25 00:55:23;;;;;;;;;;;;;;;9.71;100.00;101602.28;5048393;28;19924;-73
2022/09/25 00:57:49;;;;;;;;;;;;;;;9.69;100.00;101595.31;5048173;28;20433;-73
2022/09/25 01:00:15;;;;;;;;;;;;;;;9.67;100.00;101605.03;5031911;28;19973;-72
2022/09/25 01:02:41;;;;;;;;;;;;;;;9.63;100.00;101602.50;5048639;28;20395;-72
2022/09/25 01:05:15;;;;;;;;;;;;;;;9.60;100.00;101605.22;5047355;28;20002;-72
2022/09/25 01:07:42;;;;;;;;;;;;;;;9.60;100.00;101615.81;5048600;28;20027;-73
2022/09/25 01:10:07;;;;;;;;;;;;;;;9.57;100.00;101618.53;5046771;28;19947;-72
2022/09/25 01:12:37;;;;;;;;;;;;;;;9.55;100.00;101615.09;5049234;28;20391;-72
2022/09/25 01:15:06;;;;;;;;;;;;;;;9.51;100.00;101614.31;5046509;28;20645;-72
2022/09/25 01:17:38;;;;;;;;;;;;;;;9.49;100.00;101612.63;5046913;28;19936;-72
2022/09/25 01:20:22;;;;;;;;;;;;;;;9.46;100.00;101612.69;5047965;28;20365;-72
2022/09/25 01:22:54;;;;;;;;;;;;;;;9.43;100.00;101610.16;5049752;28;19925;-71
2022/09/25 01:25:27;;;;;;;;;;;;;;;9.40;100.00;101605.81;5049485;28;19947;-72
2022/09/25 01:28:03;;;;;;;;;;;;;;;9.37;100.00;101612.03;5047146;28;19970;-72
2022/09/25 01:30:29;;;;;;;;;;;;;;;9.36;100.00;101612.97;5046792;28;20397;-72
2022/09/25 01:33:09;;;;;;;;;;;;;;;9.34;100.00;101608.63;5049063;28;19978;-72
2022/09/25 01:35:45;;;;;;;;;;;;;;;9.32;100.00;101603.38;5047433;28;20000;-73
2022/09/25 01:38:12;;;;;;;;;;;;;;;9.31;100.00;101598.16;5049005;28;20490;-73
2022/09/25 01:40:57;;;;;;;;;;;;;;;9.29;100.00;101600.84;5046960;28;20118;-73
2022/09/25 01:43:26;;;;;;;;;;;;;;;9.29;100.00;101606.13;5048683;28;19928;-72
2022/09/25 01:45:51;;;;;;;;;;;;;;;9.29;100.00;101611.41;5048928;28;20066;-73
2022/09/25 01:48:17;;;;;;;;;;;;;;;9.29;100.00;101603.47;5049336;28;19944;-72
2022/09/25 01:50:48;;;;;;;;;;;;;;;9.30;100.00;101607.84;5046976;28;19929;-72
2022/09/25 01:53:14;;;;;;;;;;;;;;;9.32;100.00;101605.16;5047257;28;19928;-72
2022/09/25 01:55:42;;;;;;;;;;;;;;;9.32;100.00;101600.72;5047622;28;20315;-73
2022/09/25 01:58:18;;;;;;;;;;;;;;;9.33;100.00;101597.16;5062954;28;20510;-72
2022/09/25 02:00:46;;;;;;;;;;;;;;;9.33;100.00;101594.53;5048404;28;20367;-72
2022/09/25 02:03:31;;;;;;;;;;;;;;;9.32;100.00;101587.53;5047118;28;19924;-72
2022/09/25 02:05:59;;;;;;;;;;;;;;;9.32;100.00;101594.59;5047267;28;19935;-72
2022/09/25 02:08:26;;;;;;;;;;;;;;;9.29;100.00;101595.53;5028332;28;19985;-73
2022/09/25 02:11:09;;;;;;;;;;;;;;;9.26;100.00;101587.69;5047857;28;19967;-73
2022/09/25 02:13:40;;;;;;;;;;;;;;;9.24;100.00;101586.88;5045810;28;20303;-72
2022/09/25 02:16:07;;;;;;;;;;;;;;;9.21;100.00;101586.97;5046995;28;19948;-72
2022/09/25 02:21:35;;;;;;;;;;;;;;;9.13;100.00;101584.53;5046017;28;19924;-72
2022/09/25 02:24:16;;;;;;;;;;;;;;;9.08;100.00;101582.03;5049078;28;19963;-72
2022/09/25 02:26:41;;;;;;;;;;;;;;;9.09;100.00;101577.59;5048018;28;19943;-72
2022/09/25 02:29:07;;;;;;;;;;;;;;;9.09;100.00;101585.50;5046564;28;19924;-72
2022/09/25 02:31:40;;;;;;;;;;;;;;;9.09;100.00;101589.03;5046077;28;19929;-72
2022/09/25 02:34:05;;;;;;;;;;;;;;;9.08;100.00;101587.31;5046486;28;20429;-72
2022/09/25 02:36:32;;;;;;;;;;;;;;;9.07;100.00;101590.84;5046071;28;19921;-72
2022/09/25 02:38:58;;;;;;;;;;;;;;;9.05;100.00;101595.31;5054762;28;19936;-72
2022/09/25 02:41:24;;;;;;;;;;;;;;;9.03;100.00;101590.97;5046145;28;20287;-72
2022/09/25 02:43:56;;;;;;;;;;;;;;;9.01;100.00;101590.16;5047501;28;20004;-72
2022/09/25 02:46:38;;;;;;;;;;;;;;;8.98;100.00;101590.25;5047925;28;20001;-72
2022/09/25 02:49:03;;;;;;;;;;;;;;;8.93;100.00;101588.56;5045749;28;19929;-72
2022/09/25 02:51:52;;;;;;;;;;;;;;;8.90;100.00;101582.50;5046806;28;19925;-72
2022/09/25 02:54:25;;;;;;;;;;;;;;;8.87;100.00;101582.59;5042187;28;20403;-72
2022/09/25 02:56:52;;;;;;;;;;;;;;;8.83;100.00;101587.94;5045434;28;19969;-72
2022/09/25 02:59:18;;;;;;;;;;;;;;;8.80;100.00;101585.41;5047867;28;19932;-72
2022/09/25 03:01:45;;;;;;;;;;;;;;;8.79;100.00;101590.72;5045817;28;20003;-72
2022/09/25 03:04:11;;;;;;;;;;;;;;;8.76;100.00;101586.38;5063173;28;20457;-73
2022/09/25 03:06:36;;;;;;;;;;;;;;;8.75;100.00;101600.50;5028681;28;19928;-72
2022/09/25 03:09:02;;;;;;;;;;;;;;;8.76;100.00;101612.78;5062653;28;20468;-72
2022/09/25 03:11:27;;;;;;;;;;;;;;;8.78;100.00;101613.59;5078856;28;19925;-72
2022/09/25 03:13:57;;;;;;;;;;;;;;;8.87;100.00;101622.22;5037510;28;19925;-72
2022/09/25 03:16:43;;;;;;;;;;;;;;;8.99;100.00;101621.03;5047247;28;20027;-72
2022/09/25 03:19:09;;;;;;;;;;;;;;;9.08;100.00;101610.19;5046523;28;19921;-72
2022/09/25 03:21:34;;;;;;;;;;;;;;;9.12;100.00;101608.34;5045264;28;20975;-72
2022/09/25 03:24:01;;;;;;;;;;;;;;;9.16;100.00;101600.28;5047417;28;20003;-72
2022/09/25 03:26:29;;;;;;;;;;;;;;;9.19;100.00;101599.34;5048363;28;19925;-72
2022/09/25 03:28:54;;;;;;;;;;;;;;;9.20;100.00;101607.22;5045031;28;19927;-72
2022/09/25 03:31:20;;;;;;;;;;;;;;;9.22;100.00;101599.28;5045409;28;19929;-72
2022/09/25 03:33:46;;;;;;;;;;;;;;;9.26;100.00;101600.06;5048097;28;19928;-72
2022/09/25 03:36:11;;;;;;;;;;;;;;;9.26;100.00;101592.97;5051920;28;19992;-72
2022/09/25 03:38:37;;;;;;;;;;;;;;;9.27;100.00;101592.09;5052045;28;19998;-72
2022/09/25 03:41:04;;;;;;;;;;;;;;;9.28;100.00;101598.22;5049747;28;19932;-72
2022/09/25 03:43:31;;;;;;;;;;;;;;;9.26;100.00;101608.81;5049085;28;20394;-72
2022/09/25 03:45:56;;;;;;;;;;;;;;;9.25;100.00;101604.44;5051791;28;19932;-71
2022/09/25 03:48:22;;;;;;;;;;;;;;;9.25;100.00;101596.53;5051155;28;20397;-72
2022/09/25 03:50:49;;;;;;;;;;;;;;;9.22;100.00;101592.19;5050952;28;19986;-72
2022/09/25 03:53:16;;;;;;;;;;;;;;;9.21;100.00;101597.53;5050708;28;20287;-72
2022/09/25 03:55:42;;;;;;;;;;;;;;;9.21;100.00;101602.81;5049553;28;19929;-72
2022/09/25 03:58:09;;;;;;;;;;;;;;;9.20;100.00;101595.78;5049441;28;19921;-73
2022/09/25 04:00:34;;;;;;;;;;;;;;;9.18;100.00;101589.69;5051132;28;19928;-72
2022/09/25 04:03:00;;;;;;;;;;;;;;;9.17;100.00;101587.97;5051082;28;19955;-71
2022/09/25 04:05:25;;;;;;;;;;;;;;;9.17;100.00;101585.31;5050073;28;19929;-71
2022/09/25 04:07:50;;;;;;;;;;;;;;;9.16;100.00;101589.72;5050937;28;19939;-71
2022/09/25 04:10:16;;;;;;;;;;;;;;;9.17;100.00;101588.84;5049233;28;19932;-71
2022/09/25 04:12:42;;;;;;;;;;;;;;;9.19;100.00;101591.41;5050439;28;19971;-71
2022/09/25 04:15:08;;;;;;;;;;;;;;;9.20;100.00;101582.56;5049804;28;20401;-72
2022/09/25 04:17:34;;;;;;;;;;;;;;;9.21;100.00;101592.25;5050484;28;19933;-72
2022/09/25 04:20:00;;;;;;;;;;;;;;;9.21;100.00;101582.53;5049682;28;19958;-72
2022/09/25 04:22:25;;;;;;;;;;;;;;;9.22;100.00;101578.13;5049240;28;19924;-72
2022/09/25 04:24:51;;;;;;;;;;;;;;;9.21;100.00;101571.97;5050937;28;19994;-72
2022/09/25 04:27:18;;;;;;;;;;;;;;;9.22;100.00;101570.22;5050218;28;19948;-72
2022/09/25 04:29:43;;;;;;;;;;;;;;;9.22;100.00;101563.13;5048423;28;20391;-72
2022/09/25 04:34:52;;;;;;;;;;;;;;;9.22;100.00;101551.72;5049611;28;20588;-73
2022/09/25 04:37:25;;;;;;;;;;;;;;;9.24;100.00;101550.75;5048385;28;19929;-72
2022/09/25 04:39:53;;;;;;;;;;;;;;;9.24;100.00;101545.47;5050132;28;19932;-73
2022/09/25 04:42:22;;;;;;;;;;;;;;;9.26;100.00;101550.69;5048487;28;19948;-72
2022/09/25 04:44:48;;;;;;;;;;;;;;;9.29;100.00;101568.25;5048269;28;20379;-73
2022/09/25 04:47:13;;;;;;;;;;;;;;;9.29;100.00;101577.03;5050116;28;19928;-73
2022/09/25 04:49:38;;;;;;;;;;;;;;;9.29;100.00;101574.41;5049702;28;19929;-73
2022/09/25 04:52:04;;;;;;;;;;;;;;;9.30;100.00;101584.06;5049415;28;19929;-73
2022/09/25 04:54:30;;;;;;;;;;;;;;;9.33;100.00;101569.91;5048493;28;19924;-73
2022/09/25 04:56:56;;;;;;;;;;;;;;;9.35;100.00;101570.72;5050325;28;20445;-73
2022/09/25 04:59:22;;;;;;;;;;;;;;;9.38;100.00;101570.63;5065230;28;20010;-73
2022/09/25 05:01:47;;;;;;;;;;;;;;;9.37;100.00;101575.06;5049982;28;19933;-74
2022/09/25 05:04:14;;;;;;;;;;;;;;;9.40;100.00;101578.50;5049354;28;19967;-73
2022/09/25 05:06:40;;;;;;;;;;;;;;;9.41;100.00;101577.63;5048988;28;19928;-73
2022/09/25 05:09:05;;;;;;;;;;;;;;;9.43;100.00;101581.91;5048060;28;19951;-73
2022/09/25 05:11:31;;;;;;;;;;;;;;;9.44;100.00;101575.75;5049261;28;19936;-73
2022/09/25 05:13:56;;;;;;;;;;;;;;;9.46;100.00;101575.69;5047613;28;20407;-73
2022/09/25 05:16:22;;;;;;;;;;;;;;;9.50;100.00;101569.41;5064926;28;20394;-73
2022/09/25 05:18:47;;;;;;;;;;;;;;;9.50;100.00;101572.91;5049532;28;20493;-73
2022/09/25 05:21:13;;;;;;;;;;;;;;;9.53;100.00;101568.47;5049986;28;19926;-73
2022/09/25 05:23:38;;;;;;;;;;;;;;;9.51;100.00;101572.00;5049319;28;19967;-73
2022/09/25 05:26:04;;;;;;;;;;;;;;;9.52;100.00;101580.78;5048230;28;19929;-73
2022/09/25 05:28:30;;;;;;;;;;;;;;;9.51;100.00;101579.06;5047311;28;19929;-72
2022/09/25 05:30:57;;;;;;;;;;;;;;;9.51;100.00;101579.94;5047980;28;19928;-72
2022/09/25 05:33:23;;;;;;;;;;;;;;;9.51;100.00;101573.78;5048041;28;19924;-73
2022/09/25 05:35:48;;;;;;;;;;;;;;;9.48;100.00;101577.38;5064327;28;19932;-73
2022/09/25 05:38:14;;;;;;;;;;;;;;;9.47;100.00;101573.00;5048585;28;20374;-72
2022/09/25 05:40:39;;;;;;;;;;;;;;;9.44;100.00;101566.94;5046992;28;19924;-74
2022/09/25 05:43:05;;;;;;;;;;;;;;;9.41;100.00;101567.06;5048485;28;19955;-73
2022/09/25 05:45:30;;;;;;;;;;;;;;;9.38;100.00;101579.41;5049064;28;19933;-74
2022/09/25 05:48:02;;;;;;;;;;;;;;;9.34;100.00;101567.22;5046350;28;19929;-73
2022/09/25 05:50:28;;;;;;;;;;;;;;;9.32;100.00;101570.81;5063420;28;20327;-73
2022/09/25 05:53:00;;;;;;;;;;;;;;;9.28;100.00;101567.41;5047072;28;19959;-73
2022/09/25 05:55:26;;;;;;;;;;;;;;;9.24;100.00;101574.53;5047352;28;19939;-73
2022/09/25 05:57:51;;;;;;;;;;;;;;;9.22;100.00;101570.22;5048520;28;19932;-73
2022/09/25 06:00:17;;;;;;;;;;;;;;;9.19;100.00;101567.63;5049204;28;19933;-72
2022/09/25 06:02:42;;;;;;;;;;;;;;;9.18;100.00;101571.19;5046880;28;19935;-72
2022/09/25 06:05:08;;;;;;;;;;;;;;;9.16;100.00;101565.09;5047669;28;19928;-73
2022/09/25 06:07:34;;;;;;;;;;;;;;;9.14;100.00;101559.84;5048239;28;19929;-73
2022/09/25 06:09:59;;;;;;;;;;;;;;;9.16;100.00;101567.72;5046573;28;20022;-72
2022/09/25 06:12:24;;;;;;;;;;;;;;;9.15;100.00;101568.66;5048390;28;19939;-72
2022/09/25 06:14:51;;;;;;;;;;;;;;;9.15;100.00;101566.00;5046815;28;20017;-72
2022/09/25 06:17:16;;;;;;;;;;;;;;;9.14;100.00;101572.22;5047084;28;20418;-73
2022/09/25 06:19:42;;;;;;;;;;;;;;;9.15;100.00;101568.66;5047703;28;19959;-73
2022/09/25 06:22:07;;;;;;;;;;;;;;;9.16;100.00;101567.72;5047839;28;19929;-72
2022/09/25 06:24:33;;;;;;;;;;;;;;;9.15;100.00;101564.22;5047631;28;19976;-72
2022/09/25 06:26:58;;;;;;;;;;;;;;;9.14;100.00;101564.28;5047357;28;19928;-73
2022/09/25 06:29:23;;;;;;;;;;;;;;;9.10;100.00;101564.34;5048140;28;19964;-72
2022/09/25 06:31:50;;;;;;;;;;;;;;;9.09;100.00;101567.91;5048283;28;19928;-73
2022/09/25 06:34:15;;;;;;;;;;;;;;;9.07;100.00;101567.09;5079801;28;19929;-73
2022/09/25 06:36:41;;;;;;;;;;;;;;;9.04;100.00;101571.59;5048284;28;19986;-73
2022/09/25 06:39:07;;;;;;;;;;;;;;;9.02;100.00;101570.75;5047794;28;19936;-73
2022/09/25 06:41:32;;;;;;;;;;;;;;;8.99;100.00;101562.91;5047789;28;19931;-73
2022/09/25 06:43:58;;;;;;;;;;;;;;;8.98;100.00;101572.59;5047746;28;20323;-73
2022/09/25 06:46:24;;;;;;;;;;;;;;;8.95;100.00;101565.63;5045606;28;19987;-73
2022/09/25 06:48:50;;;;;;;;;;;;;;;8.95;100.00;101570.06;5047784;28;20007;-73
2022/09/25 06:51:17;;;;;;;;;;;;;;;8.95;100.00;101570.06;5045884;28;19950;-72
2022/09/25 06:53:42;;;;;;;;;;;;;;;8.94;100.00;101566.53;5029114;28;19928;-73
2022/09/25 06:56:08;;;;;;;;;;;;;;;8.96;100.00;101569.16;5047251;28;19929;-73
2022/09/25 06:58:34;;;;;;;;;;;;;;;8.98;100.00;101563.81;5045015;28;19929;-73
2022/09/25 07:01:00;;;;;;;;;;;;;;;8.98;100.00;101564.69;5047174;28;19928;-73
2022/09/25 07:03:44;;;;;;;;;;;;;;;9.00;100.00;101560.25;5061882;28;20403;-73
2022/09/25 07:06:13;;;;;;;;;;;;;;;9.05;100.00;101563.59;5060242;28;20320;-73
2022/09/25 07:08:39;;;;;;;;;;;;;;;9.10;100.00;101564.34;5046777;28;20014;-73
2022/09/25 07:11:05;;;;;;;;;;;;;;;9.17;100.00;101569.47;5047802;28;20383;-74
2022/09/25 07:13:32;;;;;;;;;;;;;;;9.21;100.00;101561.41;5046782;28;19928;-74
2022/09/25 07:15:58;;;;;;;;;;;;;;;9.26;100.00;101566.56;5045915;28;19924;-74
2022/09/25 07:18:24;;;;;;;;;;;;;;;9.32;100.00;101566.38;5047118;28;19960;-73
2022/09/25 07:20:49;;;;;;;;;;;;;;;9.35;100.00;101561.03;5045861;28;20865;-74
2022/09/25 07:23:16;;;;;;;;;;;;;;;9.37;100.00;101564.47;5046580;28;19958;-73
2022/09/25 07:25:41;;;;;;;;;;;;;;;9.41;100.00;101567.91;5046263;28;19936;-73
2022/09/25 07:28:08;;;;;;;;;;;;;;;9.47;100.00;101566.84;5046188;28;19924;-74
2022/09/25 07:30:33;;;;;;;;;;;;;;;9.53;100.00;101566.66;5047631;28;20024;-74
2022/09/25 07:32:59;;;;;;;;;;;;;;;9.61;100.00;101562.03;5047049;28;19929;-74
2022/09/25 07:35:26;;;;;;;;;;;;;;;9.71;100.00;101567.91;5047208;28;19990;-74
2022/09/25 07:37:51;;;;;;;;;;;;;;;9.78;100.00;101566.81;5047356;28;19925;-73
2022/09/25 07:40:17;;;;;;;;;;;;;;;9.86;100.00;101561.28;5046218;28;19979;-74
2022/09/25 07:42:42;;;;;;;;;;;;;;;9.96;100.00;101566.28;5047072;28;20019;-74
2022/09/25 07:45:08;;;;;;;;;;;;;;;10.03;100.00;101565.19;5047917;28;19935;-73
2022/09/25 07:47:33;;;;;;;;;;;;;;;10.13;100.00;101569.25;5048357;28;20263;-73
2022/09/25 07:49:59;;;;;;;;;;;;;;;10.23;100.00;101561.88;5047824;28;19925;-74
2022/09/25 07:52:24;;;;;;;;;;;;;;;10.36;100.00;101559.72;5079404;28;19959;-74
2022/09/25 07:54:49;;;;;;;;;;;;;;;10.45;100.00;101572.66;5045941;28;19929;-74
2022/09/25 07:57:15;;;;;;;;;;;;;;;10.55;100.00;101565.28;5062086;28;20302;-74
2022/09/25 07:59:41;;;;;;;;;;;;;;;10.62;100.00;101563.28;5047408;28;20402;-73
2022/09/25 08:02:07;;;;;;;;;;;;;;;10.71;100.00;101568.28;5047893;28;19990;-74
2022/09/25 08:04:33;;;;;;;;;;;;;;;10.81;100.00;101573.25;5047497;28;19924;-74
2022/09/25 08:06:59;;;;;;;;;;;;;;;10.91;100.00;101568.50;5047071;28;20722;-74
2022/09/25 08:09:24;;;;;;;;;;;;;;;10.99;100.00;101575.25;5047057;28;21624;-73
2022/09/25 08:11:49;;;;;;;;;;;;;;;11.08;100.00;101565.25;5045696;28;20307;-73
2022/09/25 08:14:15;;;;;;;;;;;;;;;11.18;100.00;101564.00;5046265;28;19933;-74
2022/09/25 08:16:41;;;;;;;;;;;;;;;11.30;100.00;101567.09;5046491;28;19932;-74
2022/09/25 08:19:07;;;;;;;;;;;;;;;11.42;100.00;101566.66;5046147;28;19925;-74
2022/09/25 08:21:32;;;;;;;;;;;;;;;11.54;100.00;101563.53;5050883;28;19935;-74
2022/09/25 08:23:59;;;;;;;;;;;;;;;11.71;100.00;101564.66;5049187;28;19921;-74
2022/09/25 08:26:27;;;;;;;;;;;;;;;11.87;100.00;101574.69;5049355;28;19929;-74
2022/09/25 08:28:52;;;;;;;;;;;;;;;12.00;100.00;101578.59;5065369;28;19931;-73
2022/09/25 08:31:18;;;;;;;;;;;;;;;12.08;100.00;101579.19;5048385;28;19925;-74
2022/09/25 08:33:44;;;;;;;;;;;;;;;12.15;100.00;101568.31;5050919;28;19951;-74
2022/09/25 08:36:09;;;;;;;;;;;;;;;12.17;100.00;101577.06;5047997;28;20414;-74
2022/09/25 08:38:35;;;;;;;;;;;;;;;12.19;100.00;101570.78;5050168;28;20023;-74
2022/09/25 08:41:03;;;;;;;;;;;;;;;12.21;100.00;101573.38;5050103;28;19928;-74
2022/09/25 08:43:31;;;;;;;;;;;;;;;12.22;100.00;101581.25;5049393;28;19998;-74
2022/09/25 08:49:19;;;;;;;;;;;;;;;12.26;100.00;101579.34;5049611;28;19932;-74
2022/09/25 08:51:34;;;;;;;;;;;;;;;12.25;100.00;101580.28;5047014;28;19936;-74
2022/09/25 08:53:59;;;;;;;;;;;;;;;12.24;100.00;101573.25;5050021;28;19928;-75
2022/09/25 08:56:26;;;;;;;;;;;;;;;12.24;100.00;101573.25;5049952;28;20534;-75
2022/09/25 08:58:51;;;;;;;;;;;;;;;12.27;100.00;101580.22;5048714;28;19959;-74
2022/09/25 09:01:22;;;;;;;;;;;;;;;12.28;100.00;101569.56;5081018;28;20050;-74
2022/09/25 09:03:49;;;;;;;;;;;;;;;12.30;100.00;101572.13;5048594;28;20086;-74
2022/09/25 09:06:15;;;;;;;;;;;;;;;12.30;100.00;101577.44;5050044;28;19927;-74
2022/09/25 09:08:41;;;;;;;;;;;;;;;12.33;100.00;101578.16;5047279;28;19928;-74
2022/09/25 09:11:09;;;;;;;;;;;;;;;12.37;100.00;101578.94;5047596;28;20022;-74
2022/09/25 09:13:47;;;;;;;;;;;;;;;12.32;100.00;101571.13;5049286;28;19925;-72
2022/09/25 09:16:25;;;;;;;;;;;;;;;12.31;100.00;101569.41;5049606;28;20472;-73
2022/09/25 09:18:50;;;;;;;;;;;;;;;12.33;100.00;101567.53;5049496;28;19967;-73
2022/09/25 09:21:45;;;;;;;;;;;;;;;12.33;100.00;101564.88;5047048;28;19928;-74
2022/09/25 09:24:10;;;;;;;;;;;;;;;12.33;100.00;101559.56;5040816;28;19924;-74
2022/09/25 09:26:48;;;;;;;;;;;;;;;12.36;100.00;101562.13;5065632;28;19960;-73
2022/09/25 09:29:17;;;;;;;;;;;;;;;12.40;100.00;101557.53;5064610;28;20282;-73
2022/09/25 09:31:46;;;;;;;;;;;;;;;12.46;100.00;101553.75;5048745;28;19939;-73
2022/09/25 09:34:30;;;;;;;;;;;;;;;12.55;100.00;101560.47;5048724;28;19930;-73
2022/09/25 09:37:05;;;;;;;;;;;;;;;12.68;100.00;101556.38;5048660;28;19932;-73
2022/09/25 09:39:30;;;;;;;;;;;;;;;12.82;100.00;101557.56;5047378;28;19925;-73
2022/09/25 09:42:16;;;;;;;;;;;;;;;12.97;100.00;101551.56;5048698;28;19935;-73
2022/09/25 09:44:50;;;;;;;;;;;;;;;13.14;100.00;101553.47;5048848;28;19920;-72
2022/09/25 09:47:38;;;;;;;;;;;;;;;13.25;100.00;101560.13;5049236;28;19929;-73
2022/09/25 09:50:20;;;;;;;;;;;;;;;13.25;100.00;101563.63;5048177;28;19935;-73
2022/09/25 09:52:48;;;;;;;;;;;;;;;13.24;100.00;101559.25;5047023;28;19955;-73
2022/09/25 09:55:19;;;;;;;;;;;;;;;13.23;100.00;101551.34;5049193;28;19982;-74
2022/09/25 09:57:50;;;;;;;;;;;;;;;13.23;100.00;101548.69;5049530;28;20302;-74
2022/09/25 10:00:16;;;;;;;;;;;;;;;13.23;100.00;101551.34;5047383;28;20359;-74
2022/09/25 10:02:41;;;;;;;;;;;;;;;13.25;100.00;101552.13;5047052;28;19967;-74
2022/09/25 10:05:11;;;;;;;;;;;;;;;13.24;100.00;101553.09;5047091;28;20023;-74
2022/09/25 10:07:37;;;;;;;;;;;;;;;13.23;100.00;101541.56;5047794;28;20372;-74
2022/09/25 10:10:09;;;;;;;;;;;;;;;13.26;100.00;101536.13;5047708;28;21380;-74
2022/09/25 10:12:34;;;;;;;;;;;;;;;13.32;100.00;101537.63;5046998;28;19928;-73
2022/09/25 10:15:04;;;;;;;;;;;;;;;13.30;100.00;101539.50;5046091;28;19928;-74
2022/09/25 10:17:30;;;;;;;;;;;;;;;13.21;100.00;101538.13;5046432;28;19961;-74
2022/09/25 10:19:56;;;;;;;;;;;;;;;13.16;100.00;101535.69;5046806;28;19925;-73
2022/09/25 10:22:26;;;;;;;;;;;;;;;13.16;100.00;101538.34;5047593;28;19925;-73
2022/09/25 10:24:57;;;;;;;;;;;;;;;13.18;100.00;101538.25;5047481;28;19998;-73
2022/09/25 10:27:39;;;;;;;;;;;;;;;13.26;100.00;101535.25;5049224;28;20062;-73
2022/09/25 10:30:07;;;;;;;;;;;;;;;13.36;100.00;101538.34;5046888;28;19924;-73
2022/09/25 10:32:45;;;;;;;;;;;;;;;13.47;100.00;101540.53;5048455;28;20030;-73
2022/09/25 10:35:20;;;;;;;;;;;;;;;13.56;100.00;101533.00;5063040;28;19931;-73
2022/09/25 10:37:47;;;;;;;;;;;;;;;13.62;100.00;101529.16;5048201;28;19920;-73
2022/09/25 10:40:31;;;;;;;;;;;;;;;13.69;98.87;101529.75;5048057;28;20375;-73
2022/09/25 10:43:17;;;;;;;;;;;;;;;13.77;100.00;101532.91;5046677;28;19924;-73
2022/09/25 10:45:42;;;;;;;;;;;;;;;13.75;94.61;101533.91;5046119;28;19929;-73
2022/09/25 10:51:15;;;;;;;;;;;;;;;13.66;95.20;101538.75;5048981;28;19987;-73
2022/09/25 10:53:41;;;;;;;;;;;;;;;13.62;98.66;101539.81;5047912;28;20388;-73
2022/09/25 10:56:08;;;;;;;;;;;;;;;13.57;97.64;101541.84;5044358;28;19940;-73
2022/09/25 10:58:35;;;;;;;;;;;;;;;13.49;97.67;101541.31;5046549;28;20444;-73
2022/09/25 11:01:00;;;;;;;;;;;;;;;13.41;95.44;101539.00;5046597;28;19928;-74
2022/09/25 11:03:31;;;;;;;;;;;;;;;13.33;97.54;101536.69;5046971;28;20655;-73
2022/09/25 11:06:00;;;;;;;;;;;;;;;13.23;97.77;101522.13;5048548;28;20295;-73
2022/09/25 11:08:28;;;;;;;;;;;;;;;13.18;97.75;101523.19;5063120;28;20156;-73
2022/09/25 11:10:55;;;;;;;;;;;;;;;13.18;98.84;101524.97;5045888;28;19925;-73
2022/09/25 11:13:35;;;;;;;;;;;;;;;13.16;97.58;101522.38;5045797;28;20272;-74
2022/09/25 11:16:01;;;;;;;;;;;;;;;13.15;95.30;101518.00;5045033;28;19936;-73
2022/09/25 11:18:39;;;;;;;;;;;;;;;13.15;95.55;101512.69;5047186;28;19932;-73
2022/09/25 11:21:05;;;;;;;;;;;;;;;13.17;94.51;101508.16;5048234;28;20478;-73
2022/09/25 11:23:31;;;;;;;;;;;;;;;13.22;93.55;101509.72;5047100;28;20585;-73
2022/09/25 11:26:06;;;;;;;;;;;;;;;13.24;96.83;101510.53;5047606;28;19929;-73
2022/09/25 11:28:51;;;;;;;;;;;;;;;13.25;94.17;101504.28;5047514;28;19972;-73
2022/09/25 11:31:35;;;;;;;;;;;;;;;13.26;94.84;101503.34;5048278;28;19933;-73
2022/09/25 11:34:13;;;;;;;;;;;;;;;13.32;94.66;101503.06;5047497;28;19931;-73
2022/09/25 11:36:40;;;;;;;;;;;;;;;13.38;93.36;101497.47;5047574;28;19925;-73
2022/09/25 11:42:39;;;;;;;;;;;;;;;13.44;94.38;101496.28;5043452;28;19986;-72
2022/09/25 11:45:20;;;;;;;;;;;;;;;13.45;94.07;101498.03;5046433;28;19924;-73
2022/09/25 11:48:00;;;;;;;;;;;;;;;13.48;92.24;101491.72;5047928;28;19928;-72
2022/09/25 11:50:31;;;;;;;;;;;;;;;13.52;91.86;101482.69;5045029;28;19928;-72
2022/09/25 11:53:00;;;;;;;;;;;;;;;13.56;92.39;101492.22;5045922;28;19929;-72
2022/09/25 11:55:55;;;;;;;;;;;;;;;13.62;91.17;101491.94;5046996;28;19925;-72
2022/09/25 11:58:39;;;;;;;;;;;;;;;13.68;92.27;101488.97;5057736;28;19969;-72
2022/09/25 12:01:15;;;;;;;;;;;;;;;13.74;89.94;101487.84;5050848;28;20003;-72
2022/09/25 12:03:56;;;;;;;;;;;;;;;13.74;87.77;101479.84;5050063;28;20105;-72
2022/09/25 12:06:21;;;;;;;;;;;;;;;13.70;88.01;101478.25;5052074;28;19924;-72
2022/09/25 12:08:52;;;;;;;;;;;;;;;13.75;89.15;101480.69;5050829;28;21986;-73
2022/09/25 12:11:23;;;;;;;;;;;;;;;13.81;88.47;101475.06;5031897;28;20107;-73
2022/09/25 12:13:53;;;;;;;;;;;;;;;13.77;85.92;101476.19;5051343;28;19925;-73
2022/09/25 12:16:34;;;;;;;;;;;;;;;13.80;87.46;101473.34;5050601;28;20027;-73
2022/09/25 12:19:09;;;;;;;;;;;;;;;13.87;85.71;101461.47;5050083;28;19929;-73
2022/09/25 12:21:37;;;;;;;;;;;;;;;13.91;86.66;101471.03;5051128;28;19972;-73
2022/09/25 12:24:03;;;;;;;;;;;;;;;13.95;85.40;101464.59;5049005;28;19928;-73
2022/09/25 12:26:51;;;;;;;;;;;;;;;14.05;87.91;101458.84;5049679;28;19970;-73
2022/09/25 12:29:18;;;;;;;;;;;;;;;14.11;87.57;101453.19;5048590;28;19925;-73
2022/09/25 12:31:57;;;;;;;;;;;;;;;14.06;87.78;101450.75;5050589;28;20029;-72
2022/09/25 12:34:41;;;;;;;;;;;;;;;13.99;86.37;101449.34;5049571;28;19971;-73
2022/09/25 12:37:06;;;;;;;;;;;;;;;13.91;84.85;101451.53;5049378;28;19935;-72
2022/09/25 12:39:39;;;;;;;;;;;;;;;13.89;84.99;101443.63;5049200;28;19928;-72
2022/09/25 12:42:22;;;;;;;;;;;;;;;13.91;84.66;101447.09;5032000;28;20007;-72
2022/09/25 12:44:56;;;;;;;;;;;;;;;13.98;82.96;101437.84;5049013;28;19944;-73
2022/09/25 12:47:40;;;;;;;;;;;;;;;14.11;84.35;101439.91;5048371;28;19963;-73
2022/09/25 12:50:10;;;;;;;;;;;;;;;14.15;83.06;101444.09;5048619;28;19978;-73
2022/09/25 12:52:40;;;;;;;;;;;;;;;14.11;84.31;101437.22;5047805;28;19959;-73
2022/09/25 12:55:05;;;;;;;;;;;;;;;13.99;82.59;101442.22;5048109;28;19928;-73
2022/09/25 12:57:37;;;;;;;;;;;;;;;13.93;80.00;101428.34;5049556;28;19936;-73
2022/09/25 13:00:02;;;;;;;;;;;;;;;13.94;81.13;101428.28;5050048;28;19936;-72